sensor_id;sensor_type;location;lat;lon;timestamp;temperature;humidity
67750;DHT22;54550;48.838;8.828;2023-03-01T00:01:31;-3.00;99.90
67750;DHT22;54550;48.838;8.828;2023-03-01T00:03:58;-3.00;99.90
67750;DHT22;54550;48.838;8.828;2023-03-01T00:06:24;-2.90;99.90
67750;DHT22;54550;48.838;8.828;2023-03-01T00:08:50;-2.90;99.90
67750;DHT22;54550;48.838;8.828;2023-03-01T00:11:24;-2.90;99.90
67750;DHT22;54550;48.838;8.828;2023-03-01T00:13:52;-2.80;99.90
67750;DHT22;54550;48.838;8.828;2023-03-01T00:16:21;-2.80;99.90
67750;DHT22;54550;48.838;8.828;2023-03-01T00:18:47;-2.90;99.90
67750;DHT22;54550;48.838;8.828;2023-03-01T00:21:13;-3.00;99.90
67750;DHT22;54550;48.838;8.828;2023-03-01T00:23:39;-3.00;99.90
67750;DHT22;54550;48.838;8.828;2023-03-01T00:26:07;-3.20;99.90
67750;DHT22;54550;48.838;8.828;2023-03-01T00:28:34;-3.20;99.90
67750;DHT22;54550;48.838;8.828;2023-03-01T00:31:08;-3.20;99.90
67750;DHT22;54550;48.838;8.828;2023-03-01T00:33:34;-3.30;99.90
67750;DHT22;54550;48.838;8.828;2023-03-01T00:36:00;-3.40;99.90
67750;DHT22;54550;48.838;8.828;2023-03-01T00:38:25;-3.40;99.90
67750;DHT22;54550;48.838;8.828;2023-03-01T00:40:51;-3.50;99.90
67750;DHT22;54550;48.838;8.828;2023-03-01T00:43:18;-3.50;99.90
67750;DHT22;54550;48.838;8.828;2023-03-01T00:45:44;-3.60;99.90
67750;DHT22;54550;48.838;8.828;2023-03-01T00:48:10;-3.60;99.90
67750;DHT22;54550;48.838;8.828;2023-03-01T00:50:35;-3.70;99.90
67750;DHT22;54550;48.838;8.828;2023-03-01T00:53:01;-3.60;99.90
67750;DHT22;54550;48.838;8.828;2023-03-01T00:55:27;-3.60;99.90
67750;DHT22;54550;48.838;8.828;2023-03-01T00:57:52;-3.60;99.90
67750;DHT22;54550;48.838;8.828;2023-03-01T01:00:19;-3.60;99.90
67750;DHT22;54550;48.838;8.828;2023-03-01T01:02:45;-3.70;99.90
67750;DHT22;54550;48.838;8.828;2023-03-01T01:05:11;-3.70;99.90
67750;DHT22;54550;48.838;8.828;2023-03-01T01:07:37;-3.70;99.90
67750;DHT22;54550;48.838;8.828;2023-03-01T01:10:02;-3.70;99.90
67750;DHT22;54550;48.838;8.828;2023-03-01T01:12:28;-3.70;99.90
67750;DHT22;54550;48.838;8.828;2023-03-01T01:14:54;-3.90;99.90
67750;DHT22;54550;48.838;8.828;2023-03-01T01:17:20;-3.80;99.90
67750;DHT22;54550;48.838;8.828;2023-03-01T01:19:45;-3.80;99.90
67750;DHT22;54550;48.838;8.828;2023-03-01T01:22:11;-3.70;99.90
67750;DHT22;54550;48.838;8.828;2023-03-01T01:24:36;-3.70;99.90
67750;DHT22;54550;48.838;8.828;2023-03-01T01:27:02;-3.60;99.90
67750;DHT22;54550;48.838;8.828;2023-03-01T01:29:28;-3.60;99.90
67750;DHT22;54550;48.838;8.828;2023-03-01T01:31:53;-3.50;99.90
67750;DHT22;54550;48.838;8.828;2023-03-01T01:34:21;-3.50;99.90
67750;DHT22;54550;48.838;8.828;2023-03-01T01:36:51;-3.60;99.90
67750;DHT22;54550;48.838;8.828;2023-03-01T01:39:19;-3.60;99.90
67750;DHT22;54550;48.838;8.828;2023-03-01T01:41:45;-3.70;99.90
67750;DHT22;54550;48.838;8.828;2023-03-01T01:44:15;-3.70;99.90
67750;DHT22;54550;48.838;8.828;2023-03-01T01:47:05;-3.70;99.90
67750;DHT22;54550;48.838;8.828;2023-03-01T01:49:53;-3.80;99.90
67750;DHT22;54550;48.838;8.828;2023-03-01T01:52:26;-3.80;99.90
67750;DHT22;54550;48.838;8.828;2023-03-01T01:55:14;-3.90;99.90
67750;DHT22;54550;48.838;8.828;2023-03-01T01:57:47;-3.90;99.90
67750;DHT22;54550;48.838;8.828;2023-03-01T02:00:20;-4.10;99.90
67750;DHT22;54550;48.838;8.828;2023-03-01T02:02:48;-4.10;99.90
67750;DHT22;54550;48.838;8.828;2023-03-01T02:07:51;-4.20;99.90
67750;DHT22;54550;48.838;8.828;2023-03-01T02:10:17;-4.10;99.90
67750;DHT22;54550;48.838;8.828;2023-03-01T02:12:43;-4.10;99.90
67750;DHT22;54550;48.838;8.828;2023-03-01T02:15:09;-4.10;99.90
67750;DHT22;54550;48.838;8.828;2023-03-01T02:17:35;-4.10;99.90
67750;DHT22;54550;48.838;8.828;2023-03-01T02:20:48;-4.10;99.90
67750;DHT22;54550;48.838;8.828;2023-03-01T02:23:05;-4.10;99.90
67750;DHT22;54550;48.838;8.828;2023-03-01T02:25:45;-4.00;99.90
67750;DHT22;54550;48.838;8.828;2023-03-01T02:30:47;-3.80;99.90
67750;DHT22;54550;48.838;8.828;2023-03-01T02:33:33;-3.80;99.90
67750;DHT22;54550;48.838;8.828;2023-03-01T02:36:06;-3.70;99.90
67750;DHT22;54550;48.838;8.828;2023-03-01T02:38:33;-3.80;99.90
67750;DHT22;54550;48.838;8.828;2023-03-01T02:40:59;-3.90;99.90
67750;DHT22;54550;48.838;8.828;2023-03-01T02:43:29;-3.90;99.90
67750;DHT22;54550;48.838;8.828;2023-03-01T02:45:59;-4.00;99.90
67750;DHT22;54550;48.838;8.828;2023-03-01T02:48:24;-4.10;99.90
67750;DHT22;54550;48.838;8.828;2023-03-01T02:53:39;-4.10;99.90
67750;DHT22;54550;48.838;8.828;2023-03-01T02:56:07;-4.00;99.90
67750;DHT22;54550;48.838;8.828;2023-03-01T02:58:41;-3.90;99.90
67750;DHT22;54550;48.838;8.828;2023-03-01T03:01:12;-3.80;99.90
67750;DHT22;54550;48.838;8.828;2023-03-01T03:03:39;-3.70;99.90
67750;DHT22;54550;48.838;8.828;2023-03-01T03:06:04;-3.60;99.90
67750;DHT22;54550;48.838;8.828;2023-03-01T03:08:30;-3.60;99.90
67750;DHT22;54550;48.838;8.828;2023-03-01T03:10:55;-3.50;99.90
67750;DHT22;54550;48.838;8.828;2023-03-01T03:13:21;-3.40;99.90
67750;DHT22;54550;48.838;8.828;2023-03-01T03:15:47;-3.30;99.90
67750;DHT22;54550;48.838;8.828;2023-03-01T03:18:15;-3.30;99.90
67750;DHT22;54550;48.838;8.828;2023-03-01T03:20:42;-3.20;99.90
67750;DHT22;54550;48.838;8.828;2023-03-01T03:23:08;-3.20;99.90
67750;DHT22;54550;48.838;8.828;2023-03-01T03:25:34;-3.30;99.90
67750;DHT22;54550;48.838;8.828;2023-03-01T03:28:03;-3.30;99.90
67750;DHT22;54550;48.838;8.828;2023-03-01T03:30:35;-3.30;99.90
67750;DHT22;54550;48.838;8.828;2023-03-01T03:33:02;-3.20;99.90
67750;DHT22;54550;48.838;8.828;2023-03-01T03:35:33;-3.30;99.90
67750;DHT22;54550;48.838;8.828;2023-03-01T03:38:03;-3.30;99.90
67750;DHT22;54550;48.838;8.828;2023-03-01T03:40:39;-3.20;99.90
67750;DHT22;54550;48.838;8.828;2023-03-01T03:43:08;-3.20;99.90
67750;DHT22;54550;48.838;8.828;2023-03-01T03:45:35;-3.20;99.90
67750;DHT22;54550;48.838;8.828;2023-03-01T03:48:02;-3.30;99.90
67750;DHT22;54550;48.838;8.828;2023-03-01T03:50:29;-3.30;99.90
67750;DHT22;54550;48.838;8.828;2023-03-01T03:52:54;-3.30;99.90
67750;DHT22;54550;48.838;8.828;2023-03-01T03:55:20;-3.20;99.90
67750;DHT22;54550;48.838;8.828;2023-03-01T03:57:47;-3.20;99.90
67750;DHT22;54550;48.838;8.828;2023-03-01T04:00:18;-3.20;99.90
67750;DHT22;54550;48.838;8.828;2023-03-01T04:02:45;-3.10;99.90
67750;DHT22;54550;48.838;8.828;2023-03-01T04:05:12;-3.10;99.90
67750;DHT22;54550;48.838;8.828;2023-03-01T04:07:40;-3.00;99.90
67750;DHT22;54550;48.838;8.828;2023-03-01T04:10:08;-2.90;99.90
67750;DHT22;54550;48.838;8.828;2023-03-01T04:12:34;-2.90;99.90
67750;DHT22;54550;48.838;8.828;2023-03-01T04:15:00;-2.70;99.90
67750;DHT22;54550;48.838;8.828;2023-03-01T04:17:26;-2.70;99.90
67750;DHT22;54550;48.838;8.828;2023-03-01T04:19:55;-2.60;99.90
67750;DHT22;54550;48.838;8.828;2023-03-01T04:22:20;-2.60;99.90
67750;DHT22;54550;48.838;8.828;2023-03-01T04:24:46;-2.50;99.90
67750;DHT22;54550;48.838;8.828;2023-03-01T04:27:11;-2.50;99.90
67750;DHT22;54550;48.838;8.828;2023-03-01T04:29:37;-2.50;99.90
67750;DHT22;54550;48.838;8.828;2023-03-01T04:32:03;-2.50;99.90
67750;DHT22;54550;48.838;8.828;2023-03-01T04:34:29;-2.50;99.90
67750;DHT22;54550;48.838;8.828;2023-03-01T04:36:55;-2.40;99.90
67750;DHT22;54550;48.838;8.828;2023-03-01T04:39:21;-2.40;99.90
67750;DHT22;54550;48.838;8.828;2023-03-01T04:41:47;-2.40;99.90
67750;DHT22;54550;48.838;8.828;2023-03-01T04:44:12;-2.30;99.90
67750;DHT22;54550;48.838;8.828;2023-03-01T04:46:38;-2.40;99.90
67750;DHT22;54550;48.838;8.828;2023-03-01T04:49:03;-2.40;99.90
67750;DHT22;54550;48.838;8.828;2023-03-01T04:51:30;-2.30;99.90
67750;DHT22;54550;48.838;8.828;2023-03-01T04:53:57;-2.30;99.90
67750;DHT22;54550;48.838;8.828;2023-03-01T04:56:23;-2.40;99.90
67750;DHT22;54550;48.838;8.828;2023-03-01T04:58:49;-2.40;99.90
67750;DHT22;54550;48.838;8.828;2023-03-01T05:01:17;-2.40;99.90
67750;DHT22;54550;48.838;8.828;2023-03-01T05:03:48;-2.50;99.90
67750;DHT22;54550;48.838;8.828;2023-03-01T05:06:15;-2.50;99.90
67750;DHT22;54550;48.838;8.828;2023-03-01T05:08:41;-2.50;99.90
67750;DHT22;54550;48.838;8.828;2023-03-01T05:11:08;-2.40;99.90
67750;DHT22;54550;48.838;8.828;2023-03-01T05:13:34;-2.40;99.90
67750;DHT22;54550;48.838;8.828;2023-03-01T05:16:01;-2.40;99.90
67750;DHT22;54550;48.838;8.828;2023-03-01T05:18:28;-2.30;99.90
67750;DHT22;54550;48.838;8.828;2023-03-01T05:21:01;-2.30;99.90
67750;DHT22;54550;48.838;8.828;2023-03-01T05:23:29;-2.30;99.90
67750;DHT22;54550;48.838;8.828;2023-03-01T05:25:58;-2.30;99.90
67750;DHT22;54550;48.838;8.828;2023-03-01T05:28:24;-2.30;99.90
67750;DHT22;54550;48.838;8.828;2023-03-01T05:30:51;-2.30;99.90
67750;DHT22;54550;48.838;8.828;2023-03-01T05:33:17;-2.30;99.90
67750;DHT22;54550;48.838;8.828;2023-03-01T05:35:44;-2.40;99.90
67750;DHT22;54550;48.838;8.828;2023-03-01T05:38:11;-2.50;99.90
67750;DHT22;54550;48.838;8.828;2023-03-01T05:40:39;-2.50;99.90
67750;DHT22;54550;48.838;8.828;2023-03-01T05:43:05;-2.60;99.90
67750;DHT22;54550;48.838;8.828;2023-03-01T05:45:31;-2.70;99.90
67750;DHT22;54550;48.838;8.828;2023-03-01T05:48:00;-2.90;99.90
67750;DHT22;54550;48.838;8.828;2023-03-01T05:50:28;-2.90;99.90
67750;DHT22;54550;48.838;8.828;2023-03-01T05:53:05;-3.00;99.90
67750;DHT22;54550;48.838;8.828;2023-03-01T05:55:32;-3.00;99.90
67750;DHT22;54550;48.838;8.828;2023-03-01T05:57:59;-3.00;99.90
67750;DHT22;54550;48.838;8.828;2023-03-01T06:00:26;-3.10;99.90
67750;DHT22;54550;48.838;8.828;2023-03-01T06:02:53;-3.10;99.90
67750;DHT22;54550;48.838;8.828;2023-03-01T06:05:19;-3.10;99.90
67750;DHT22;54550;48.838;8.828;2023-03-01T06:07:45;-3.10;99.90
67750;DHT22;54550;48.838;8.828;2023-03-01T06:10:11;-3.10;99.90
67750;DHT22;54550;48.838;8.828;2023-03-01T06:12:38;-3.20;99.90
67750;DHT22;54550;48.838;8.828;2023-03-01T06:15:06;-3.20;99.90
67750;DHT22;54550;48.838;8.828;2023-03-01T06:17:33;-3.30;99.90
67750;DHT22;54550;48.838;8.828;2023-03-01T06:20:03;-3.30;99.90
67750;DHT22;54550;48.838;8.828;2023-03-01T06:22:29;-3.40;99.90
67750;DHT22;54550;48.838;8.828;2023-03-01T06:24:54;-3.30;99.90
67750;DHT22;54550;48.838;8.828;2023-03-01T06:27:20;-3.30;99.90
67750;DHT22;54550;48.838;8.828;2023-03-01T06:29:46;-3.30;99.90
67750;DHT22;54550;48.838;8.828;2023-03-01T06:32:11;-3.30;99.90
67750;DHT22;54550;48.838;8.828;2023-03-01T06:34:37;-3.30;99.90
67750;DHT22;54550;48.838;8.828;2023-03-01T06:37:02;-3.30;99.90
67750;DHT22;54550;48.838;8.828;2023-03-01T06:39:30;-3.30;99.90
67750;DHT22;54550;48.838;8.828;2023-03-01T06:41:56;-3.30;99.90
67750;DHT22;54550;48.838;8.828;2023-03-01T06:44:22;-3.20;99.90
67750;DHT22;54550;48.838;8.828;2023-03-01T06:46:47;-3.20;99.90
67750;DHT22;54550;48.838;8.828;2023-03-01T06:49:13;-3.20;99.90
67750;DHT22;54550;48.838;8.828;2023-03-01T06:51:38;-3.10;99.90
67750;DHT22;54550;48.838;8.828;2023-03-01T06:54:04;-3.10;99.90
67750;DHT22;54550;48.838;8.828;2023-03-01T06:56:31;-3.10;99.90
67750;DHT22;54550;48.838;8.828;2023-03-01T06:58:57;-3.00;99.90
67750;DHT22;54550;48.838;8.828;2023-03-01T07:01:23;-3.00;99.90
67750;DHT22;54550;48.838;8.828;2023-03-01T07:03:48;-3.00;99.90
67750;DHT22;54550;48.838;8.828;2023-03-01T07:06:14;-3.00;99.90
67750;DHT22;54550;48.838;8.828;2023-03-01T07:08:39;-2.90;99.90
67750;DHT22;54550;48.838;8.828;2023-03-01T07:11:05;-2.90;99.90
67750;DHT22;54550;48.838;8.828;2023-03-01T07:13:31;-2.90;99.90
67750;DHT22;54550;48.838;8.828;2023-03-01T07:15:57;-3.00;99.90
67750;DHT22;54550;48.838;8.828;2023-03-01T07:18:22;-3.00;99.90
67750;DHT22;54550;48.838;8.828;2023-03-01T07:20:48;-3.10;99.90
67750;DHT22;54550;48.838;8.828;2023-03-01T07:23:13;-3.10;99.90
67750;DHT22;54550;48.838;8.828;2023-03-01T07:25:39;-3.00;99.90
67750;DHT22;54550;48.838;8.828;2023-03-01T07:28:05;-3.00;99.90
67750;DHT22;54550;48.838;8.828;2023-03-01T07:30:30;-2.90;99.90
67750;DHT22;54550;48.838;8.828;2023-03-01T07:32:57;-2.90;99.90
67750;DHT22;54550;48.838;8.828;2023-03-01T07:35:25;-2.90;99.90
67750;DHT22;54550;48.838;8.828;2023-03-01T07:37:51;-2.80;99.90
67750;DHT22;54550;48.838;8.828;2023-03-01T07:40:17;-2.80;99.90
67750;DHT22;54550;48.838;8.828;2023-03-01T07:42:42;-2.70;99.90
67750;DHT22;54550;48.838;8.828;2023-03-01T07:45:09;-2.60;99.90
67750;DHT22;54550;48.838;8.828;2023-03-01T07:47:34;-2.50;99.90
67750;DHT22;54550;48.838;8.828;2023-03-01T07:50:00;-2.50;99.90
67750;DHT22;54550;48.838;8.828;2023-03-01T07:52:26;-2.40;99.90
67750;DHT22;54550;48.838;8.828;2023-03-01T07:54:55;-2.40;99.90
67750;DHT22;54550;48.838;8.828;2023-03-01T07:57:20;-2.30;99.90
67750;DHT22;54550;48.838;8.828;2023-03-01T07:59:46;-2.20;99.90
67750;DHT22;54550;48.838;8.828;2023-03-01T08:02:11;-2.10;99.90
67750;DHT22;54550;48.838;8.828;2023-03-01T08:04:37;-2.00;99.90
67750;DHT22;54550;48.838;8.828;2023-03-01T08:07:05;-2.00;99.90
67750;DHT22;54550;48.838;8.828;2023-03-01T08:09:31;-1.90;99.90
67750;DHT22;54550;48.838;8.828;2023-03-01T08:11:57;-1.90;99.90
67750;DHT22;54550;48.838;8.828;2023-03-01T08:14:24;-1.90;99.90
67750;DHT22;54550;48.838;8.828;2023-03-01T08:16:50;-1.80;99.90
67750;DHT22;54550;48.838;8.828;2023-03-01T08:19:16;-1.70;99.90
67750;DHT22;54550;48.838;8.828;2023-03-01T08:21:41;-1.70;99.90
67750;DHT22;54550;48.838;8.828;2023-03-01T08:24:07;-1.70;99.90
67750;DHT22;54550;48.838;8.828;2023-03-01T08:26:35;-1.70;99.90
67750;DHT22;54550;48.838;8.828;2023-03-01T08:29:01;-1.50;99.90
67750;DHT22;54550;48.838;8.828;2023-03-01T08:31:30;-1.40;99.90
67750;DHT22;54550;48.838;8.828;2023-03-01T08:33:59;-1.40;99.90
67750;DHT22;54550;48.838;8.828;2023-03-01T08:36:29;-1.30;99.90
67750;DHT22;54550;48.838;8.828;2023-03-01T08:38:56;-1.20;99.90
67750;DHT22;54550;48.838;8.828;2023-03-01T08:41:21;-1.20;99.90
67750;DHT22;54550;48.838;8.828;2023-03-01T08:43:47;-1.10;99.90
67750;DHT22;54550;48.838;8.828;2023-03-01T08:46:13;-1.00;99.90
67750;DHT22;54550;48.838;8.828;2023-03-01T08:48:39;-0.80;99.90
67750;DHT22;54550;48.838;8.828;2023-03-01T08:51:10;-0.60;99.90
67750;DHT22;54550;48.838;8.828;2023-03-01T08:53:35;-0.20;99.90
67750;DHT22;54550;48.838;8.828;2023-03-01T08:56:01;0.20;99.90
67750;DHT22;54550;48.838;8.828;2023-03-01T08:58:28;0.40;99.90
67750;DHT22;54550;48.838;8.828;2023-03-01T09:00:54;0.40;99.90
67750;DHT22;54550;48.838;8.828;2023-03-01T09:03:20;0.70;99.90
67750;DHT22;54550;48.838;8.828;2023-03-01T09:05:46;0.70;99.90
67750;DHT22;54550;48.838;8.828;2023-03-01T09:08:12;0.80;99.90
67750;DHT22;54550;48.838;8.828;2023-03-01T09:10:38;1.00;99.90
67750;DHT22;54550;48.838;8.828;2023-03-01T09:13:04;1.20;99.90
67750;DHT22;54550;48.838;8.828;2023-03-01T09:15:30;1.40;99.90
67750;DHT22;54550;48.838;8.828;2023-03-01T09:17:55;1.60;99.90
67750;DHT22;54550;48.838;8.828;2023-03-01T09:20:21;2.00;99.90
67750;DHT22;54550;48.838;8.828;2023-03-01T09:22:47;1.90;99.90
67750;DHT22;54550;48.838;8.828;2023-03-01T09:25:12;1.90;99.90
67750;DHT22;54550;48.838;8.828;2023-03-01T09:27:38;2.00;99.90
67750;DHT22;54550;48.838;8.828;2023-03-01T09:30:04;2.10;99.90
67750;DHT22;54550;48.838;8.828;2023-03-01T09:32:30;2.20;99.90
67750;DHT22;54550;48.838;8.828;2023-03-01T09:34:56;2.20;99.90
67750;DHT22;54550;48.838;8.828;2023-03-01T09:37:32;2.50;99.90
67750;DHT22;54550;48.838;8.828;2023-03-01T09:39:58;2.50;99.90
67750;DHT22;54550;48.838;8.828;2023-03-01T09:42:24;2.60;99.90
67750;DHT22;54550;48.838;8.828;2023-03-01T09:45:00;2.70;99.90
67750;DHT22;54550;48.838;8.828;2023-03-01T09:47:29;2.60;99.90
67750;DHT22;54550;48.838;8.828;2023-03-01T09:50:19;2.60;99.90
67750;DHT22;54550;48.838;8.828;2023-03-01T09:53:01;2.70;99.90
67750;DHT22;54550;48.838;8.828;2023-03-01T09:58:37;2.80;99.90
67750;DHT22;54550;48.838;8.828;2023-03-01T10:04:12;3.00;99.90
67750;DHT22;54550;48.838;8.828;2023-03-01T10:06:58;3.30;99.90
67750;DHT22;54550;48.838;8.828;2023-03-01T10:09:26;3.60;99.90
67750;DHT22;54550;48.838;8.828;2023-03-01T10:11:55;3.90;99.90
67750;DHT22;54550;48.838;8.828;2023-03-01T10:14:30;4.10;99.90
67750;DHT22;54550;48.838;8.828;2023-03-01T10:19:42;4.20;99.90
67750;DHT22;54550;48.838;8.828;2023-03-01T10:22:24;4.40;99.90
67750;DHT22;54550;48.838;8.828;2023-03-01T10:24:54;4.50;99.90
67750;DHT22;54550;48.838;8.828;2023-03-01T10:27:37;4.20;99.90
67750;DHT22;54550;48.838;8.828;2023-03-01T10:30:17;3.70;99.90
67750;DHT22;54550;48.838;8.828;2023-03-01T10:32:46;4.10;99.90
67750;DHT22;54550;48.838;8.828;2023-03-01T10:35:26;4.10;99.90
67750;DHT22;54550;48.838;8.828;2023-03-01T10:38:06;4.50;99.90
67750;DHT22;54550;48.838;8.828;2023-03-01T10:40:33;4.80;99.90
67750;DHT22;54550;48.838;8.828;2023-03-01T10:43:01;5.00;99.90
67750;DHT22;54550;48.838;8.828;2023-03-01T10:45:37;5.20;99.40
67750;DHT22;54550;48.838;8.828;2023-03-01T10:48:26;4.50;99.50
67750;DHT22;54550;48.838;8.828;2023-03-01T10:51:16;4.60;99.90
67750;DHT22;54550;48.838;8.828;2023-03-01T10:53:48;4.70;99.50
67750;DHT22;54550;48.838;8.828;2023-03-01T10:56:15;5.20;99.80
67750;DHT22;54550;48.838;8.828;2023-03-01T11:06:30;5.70;98.20
67750;DHT22;54550;48.838;8.828;2023-03-01T11:08:56;5.40;98.80
67750;DHT22;54550;48.838;8.828;2023-03-01T11:11:32;5.50;98.50
67750;DHT22;54550;48.838;8.828;2023-03-01T11:16:45;5.40;98.50
67750;DHT22;54550;48.838;8.828;2023-03-01T11:22:05;5.20;99.00
67750;DHT22;54550;48.838;8.828;2023-03-01T11:24:42;5.80;98.30
67750;DHT22;54550;48.838;8.828;2023-03-01T11:27:23;6.10;97.90
67750;DHT22;54550;48.838;8.828;2023-03-01T11:32:25;6.60;96.80
67750;DHT22;54550;48.838;8.828;2023-03-01T11:34:57;6.60;96.90
67750;DHT22;54550;48.838;8.828;2023-03-01T11:37:40;6.10;96.90
67750;DHT22;54550;48.838;8.828;2023-03-01T11:40:23;5.90;97.40
67750;DHT22;54550;48.838;8.828;2023-03-01T11:45:42;6.60;96.60
67750;DHT22;54550;48.838;8.828;2023-03-01T11:51:38;6.80;96.30
67750;DHT22;54550;48.838;8.828;2023-03-01T11:56:45;6.60;96.30
67750;DHT22;54550;48.838;8.828;2023-03-01T12:02:35;6.40;96.80
67750;DHT22;54550;48.838;8.828;2023-03-01T12:08:20;6.60;96.60
67750;DHT22;54550;48.838;8.828;2023-03-01T12:18:58;7.60;95.00
67750;DHT22;54550;48.838;8.828;2023-03-01T12:21:57;7.70;95.00
67750;DHT22;54550;48.838;8.828;2023-03-01T12:29:43;7.20;95.10
67750;DHT22;54550;48.838;8.828;2023-03-01T12:32:28;6.80;96.00
67750;DHT22;54550;48.838;8.828;2023-03-01T12:35:06;7.00;95.90
67750;DHT22;54550;48.838;8.828;2023-03-01T12:38:06;7.20;95.70
67750;DHT22;54550;48.838;8.828;2023-03-01T12:43:20;8.10;94.80
67750;DHT22;54550;48.838;8.828;2023-03-01T12:49:25;7.90;94.40
67750;DHT22;54550;48.838;8.828;2023-03-01T12:51:30;7.90;94.80
67750;DHT22;54550;48.838;8.828;2023-03-01T12:53:57;7.30;94.60
67750;DHT22;54550;48.838;8.828;2023-03-01T12:56:28;7.50;95.40
67750;DHT22;54550;48.838;8.828;2023-03-01T12:59:15;7.50;95.20
67750;DHT22;54550;48.838;8.828;2023-03-01T13:01:53;7.50;95.00
67750;DHT22;54550;48.838;8.828;2023-03-01T13:20:17;7.20;95.30
67750;DHT22;54550;48.838;8.828;2023-03-01T13:22:46;7.40;95.60
67750;DHT22;54550;48.838;8.828;2023-03-01T13:25:17;7.60;95.60
67750;DHT22;54550;48.838;8.828;2023-03-01T13:27:44;7.50;95.40
67750;DHT22;54550;48.838;8.828;2023-03-01T13:30:46;7.40;95.50
67750;DHT22;54550;48.838;8.828;2023-03-01T13:35:52;6.80;96.00
67750;DHT22;54550;48.838;8.828;2023-03-01T13:41:09;7.20;95.80
67750;DHT22;54550;48.838;8.828;2023-03-01T13:43:37;7.20;95.80
67750;DHT22;54550;48.838;8.828;2023-03-01T13:46:18;7.30;95.70
67750;DHT22;54550;48.838;8.828;2023-03-01T13:48:49;7.30;95.50
67750;DHT22;54550;48.838;8.828;2023-03-01T13:51:16;7.30;95.70
67750;DHT22;54550;48.838;8.828;2023-03-01T13:53:46;7.20;95.70
67750;DHT22;54550;48.838;8.828;2023-03-01T13:58:54;6.90;96.10
67750;DHT22;54550;48.838;8.828;2023-03-01T14:03:57;6.50;96.90
67750;DHT22;54550;48.838;8.828;2023-03-01T14:06:25;6.20;97.50
67750;DHT22;54550;48.838;8.828;2023-03-01T14:09:02;6.10;97.50
67750;DHT22;54550;48.838;8.828;2023-03-01T14:12:02;5.80;97.50
67750;DHT22;54550;48.838;8.828;2023-03-01T14:14:48;5.80;97.80
67750;DHT22;54550;48.838;8.828;2023-03-01T14:20:22;6.00;97.90
67750;DHT22;54550;48.838;8.828;2023-03-01T14:22:49;5.80;98.00
67750;DHT22;54550;48.838;8.828;2023-03-01T14:25:20;5.80;97.90
67750;DHT22;54550;48.838;8.828;2023-03-01T14:30:44;5.70;98.40
67750;DHT22;54550;48.838;8.828;2023-03-01T14:33:28;5.70;98.10
67750;DHT22;54550;48.838;8.828;2023-03-01T14:36:00;5.70;98.20
67750;DHT22;54550;48.838;8.828;2023-03-01T14:38:47;5.60;98.30
67750;DHT22;54550;48.838;8.828;2023-03-01T14:41:15;5.70;98.30
67750;DHT22;54550;48.838;8.828;2023-03-01T14:43:44;5.60;98.70
67750;DHT22;54550;48.838;8.828;2023-03-01T14:46:23;5.50;98.80
67750;DHT22;54550;48.838;8.828;2023-03-01T14:48:51;5.50;98.90
67750;DHT22;54550;48.838;8.828;2023-03-01T14:51:18;5.60;98.60
67750;DHT22;54550;48.838;8.828;2023-03-01T14:53:43;5.60;98.70
67750;DHT22;54550;48.838;8.828;2023-03-01T14:56:14;5.50;99.00
67750;DHT22;54550;48.838;8.828;2023-03-01T14:58:43;5.50;99.20
67750;DHT22;54550;48.838;8.828;2023-03-01T15:01:16;5.30;98.80
67750;DHT22;54550;48.838;8.828;2023-03-01T15:03:44;5.30;99.10
67750;DHT22;54550;48.838;8.828;2023-03-01T15:06:17;5.40;99.40
67750;DHT22;54550;48.838;8.828;2023-03-01T15:08:47;5.20;99.30
67750;DHT22;54550;48.838;8.828;2023-03-01T15:13:40;5.30;99.50
67750;DHT22;54550;48.838;8.828;2023-03-01T15:18:31;5.20;99.60
67750;DHT22;54550;48.838;8.828;2023-03-01T15:21:28;5.20;99.60
67750;DHT22;54550;48.838;8.828;2023-03-01T15:23:57;5.10;99.70
67750;DHT22;54550;48.838;8.828;2023-03-01T15:26:30;5.00;99.80
67750;DHT22;54550;48.838;8.828;2023-03-01T15:28:58;5.00;99.90
67750;DHT22;54550;48.838;8.828;2023-03-01T15:31:32;5.00;99.90
67750;DHT22;54550;48.838;8.828;2023-03-01T15:34:32;5.00;99.90
67750;DHT22;54550;48.838;8.828;2023-03-01T15:36:59;5.00;99.90
67750;DHT22;54550;48.838;8.828;2023-03-01T15:41:58;4.80;99.90
67750;DHT22;54550;48.838;8.828;2023-03-01T15:44:37;4.90;99.90
67750;DHT22;54550;48.838;8.828;2023-03-01T15:47:28;4.90;99.90
67750;DHT22;54550;48.838;8.828;2023-03-01T15:49:55;4.80;99.90
67750;DHT22;54550;48.838;8.828;2023-03-01T15:52:25;4.80;99.90
67750;DHT22;54550;48.838;8.828;2023-03-01T15:55:40;4.80;99.90
67750;DHT22;54550;48.838;8.828;2023-03-01T15:57:41;4.80;99.90
67750;DHT22;54550;48.838;8.828;2023-03-01T16:00:10;4.70;99.90
67750;DHT22;54550;48.838;8.828;2023-03-01T16:02:40;4.60;99.90
67750;DHT22;54550;48.838;8.828;2023-03-01T16:05:28;4.60;99.90
67750;DHT22;54550;48.838;8.828;2023-03-01T16:07:53;4.50;99.90
67750;DHT22;54550;48.838;8.828;2023-03-01T16:10:19;4.50;99.90
67750;DHT22;54550;48.838;8.828;2023-03-01T16:12:44;4.40;99.90
67750;DHT22;54550;48.838;8.828;2023-03-01T16:17:45;4.30;99.90
67750;DHT22;54550;48.838;8.828;2023-03-01T16:20:11;4.30;99.90
67750;DHT22;54550;48.838;8.828;2023-03-01T16:22:36;4.30;99.90
67750;DHT22;54550;48.838;8.828;2023-03-01T16:25:02;4.20;99.90
67750;DHT22;54550;48.838;8.828;2023-03-01T16:27:28;4.10;99.90
67750;DHT22;54550;48.838;8.828;2023-03-01T16:29:54;4.00;99.90
67750;DHT22;54550;48.838;8.828;2023-03-01T16:32:20;4.00;99.90
67750;DHT22;54550;48.838;8.828;2023-03-01T16:34:45;3.90;99.90
67750;DHT22;54550;48.838;8.828;2023-03-01T16:37:14;3.80;99.90
67750;DHT22;54550;48.838;8.828;2023-03-01T16:39:40;3.80;99.90
67750;DHT22;54550;48.838;8.828;2023-03-01T16:42:06;3.70;99.90
67750;DHT22;54550;48.838;8.828;2023-03-01T16:44:33;3.70;99.90
67750;DHT22;54550;48.838;8.828;2023-03-01T16:47:00;3.60;99.90
67750;DHT22;54550;48.838;8.828;2023-03-01T16:49:25;3.60;99.90
67750;DHT22;54550;48.838;8.828;2023-03-01T16:51:53;3.50;99.90
67750;DHT22;54550;48.838;8.828;2023-03-01T16:54:21;3.40;99.90
67750;DHT22;54550;48.838;8.828;2023-03-01T16:56:50;3.40;99.90
67750;DHT22;54550;48.838;8.828;2023-03-01T16:59:16;3.30;99.90
67750;DHT22;54550;48.838;8.828;2023-03-01T17:01:45;3.10;99.90
67750;DHT22;54550;48.838;8.828;2023-03-01T17:04:14;3.20;99.90
67750;DHT22;54550;48.838;8.828;2023-03-01T17:06:40;3.10;99.90
67750;DHT22;54550;48.838;8.828;2023-03-01T17:09:05;3.00;99.90
67750;DHT22;54550;48.838;8.828;2023-03-01T17:11:31;2.90;99.90
67750;DHT22;54550;48.838;8.828;2023-03-01T17:13:57;2.80;99.90
67750;DHT22;54550;48.838;8.828;2023-03-01T17:16:24;2.70;99.90
67750;DHT22;54550;48.838;8.828;2023-03-01T17:18:51;2.90;99.90
67750;DHT22;54550;48.838;8.828;2023-03-01T17:21:17;2.70;99.90
67750;DHT22;54550;48.838;8.828;2023-03-01T17:23:44;2.70;99.90
67750;DHT22;54550;48.838;8.828;2023-03-01T17:26:12;2.70;99.90
67750;DHT22;54550;48.838;8.828;2023-03-01T17:28:38;2.60;99.90
67750;DHT22;54550;48.838;8.828;2023-03-01T17:31:05;2.40;99.90
67750;DHT22;54550;48.838;8.828;2023-03-01T17:33:34;2.40;99.90
67750;DHT22;54550;48.838;8.828;2023-03-01T17:36:00;2.40;99.90
67750;DHT22;54550;48.838;8.828;2023-03-01T17:38:32;2.30;99.90
67750;DHT22;54550;48.838;8.828;2023-03-01T17:40:59;2.00;99.90